Loraine, IL

11:58 AM CDT on August 31, 2015 (GMT -0500)
Adams County Emergency Management | | Change Station
CLOSE
Current Station
Personal Weather Station
Location: Camp Point, IL
Elevation: 748 ft
Nearby Weather Stations

Elev 748 ft 40.04 °N, 91.07 °W | Updated 9 seconds ago

Clear
Clear
88.9 °F
Feels Like 99 °F
N
1.0
Wind Variable Wind from SSW
Gusts 9.0 mph

Today
High -- | Low -- °F
--% Chance of Precip.
Yesterday
High -- | Low -- °F
Precip. -- in
6:30 AM 7:38 PM
Waning Gibbous, 94% visible
Pressure 30.02 in
Visibility 10.0 miles
Clouds Clear
Heat Index 99 °F
Dew Point 75 °F
Humidity 64%
Rainfall 0.00 in
Snow Depth Not available.
UV 9 out of 12
Pollen 10.40 out of 12
Air Quality Not available.
Flu Activity Not available.
METAR KUIN 311654Z AUTO VRB05KT 10SM CLR 31/21 A3004 RMK AO2 SLP165 T03060211
Pressure 30.02 in
Visibility 10.0 miles
Clouds Clear
Heat Index 99 °F
Dew Point 75 °F
Humidity 64%
Rainfall 0.00 in
Snow Depth Not available.
UV 9 out of 12
Pollen 10.40 out of 12
Air Quality Not available.
Flu Activity Not available.
METAR KUIN 311654Z AUTO VRB05KT 10SM CLR 31/21 A3004 RMK AO2 SLP165 T03060211

10-Day Weather Forecast

×

Almanac

Astronomy

Aug. 31, 2015 Rise Set
Actual Time
Civil Twilight
Nautical Twilight
Astronomical Twilight
Moon
Length of Visible Light
Length of Day
Tomorrow will be .
, % of the Moon is Illuminated

Today's Extremes

State Highs State Lows

Community

WunderPhotos

Upload Photos

1,851,307 photos uploaded!

WunderBlogs® & News

Nearby

Air Quality

  Air Quality AQ Index Pollutant
Not available.

Snow Depth

Station Depth Elevation

Earthquake Activity

City Distance Mag. Time & Date
Minimum magnitude displayed is 2.5.

Coastal Water Temperatures

Place Temperature

Stations

Nearby Weather Stations

Station Location Temp. Windchill Dew Point Humidity Wind Precip. Elev Updated Type